createdAt,value
2023-03-17T00:01:36.501Z,76.33
2023-03-17T00:04:03.180Z,76.32
2023-03-17T00:06:31.909Z,75.95
2023-03-17T00:08:58.571Z,76.06
2023-03-17T00:11:27.673Z,76.29
2023-03-17T00:13:54.580Z,76.25
2023-03-17T00:16:27.233Z,76.07
2023-03-17T00:18:55.494Z,76.00
2023-03-17T00:21:28.087Z,76.22
2023-03-17T00:23:56.236Z,76.38
2023-03-17T00:26:24.291Z,76.38
2023-03-17T00:28:51.852Z,76.59
2023-03-17T00:31:21.402Z,76.44
2023-03-17T00:33:50.067Z,76.30
2023-03-17T00:36:26.139Z,76.18
2023-03-17T00:38:52.804Z,76.31
2023-03-17T00:41:20.381Z,76.26
2023-03-17T00:43:47.010Z,76.64
2023-03-17T00:46:14.985Z,76.58
2023-03-17T00:48:43.535Z,76.49
2023-03-17T00:51:10.790Z,76.77
2023-03-17T00:53:38.893Z,76.53
2023-03-17T00:56:14.861Z,76.75
2023-03-17T00:58:42.170Z,76.71
2023-03-17T01:01:09.193Z,76.91
2023-03-17T01:03:35.873Z,76.91
2023-03-17T01:06:05.678Z,77.06
2023-03-17T01:08:32.856Z,77.16
2023-03-17T01:10:59.721Z,77.45
2023-03-17T01:13:26.424Z,77.31
2023-03-17T01:15:53.253Z,77.00
2023-03-17T01:18:22.865Z,77.74
2023-03-17T01:20:50.722Z,77.39
2023-03-17T01:23:17.929Z,77.41
2023-03-17T01:25:45.396Z,77.41
2023-03-17T01:28:18.082Z,77.51
2023-03-17T01:30:45.646Z,77.36
2023-03-17T01:33:14.855Z,77.41
2023-03-17T01:35:43.865Z,77.07
2023-03-17T01:38:11.546Z,77.08
2023-03-17T01:40:44.253Z,77.89
2023-03-17T01:43:11.046Z,77.90
2023-03-17T01:46:15.259Z,77.61
2023-03-17T01:49:06.362Z,77.12
2023-03-17T01:51:44.742Z,77.17
2023-03-17T01:54:17.148Z,77.17
2023-03-17T01:56:49.031Z,77.21
2023-03-17T01:59:22.712Z,77.23
2023-03-17T02:01:52.810Z,77.09
2023-03-17T02:04:20.896Z,77.23
2023-03-17T02:06:58.317Z,77.84
2023-03-17T02:09:27.656Z,77.40
2023-03-17T02:11:55.721Z,77.57
2023-03-17T02:14:22.430Z,78.19
2023-03-17T02:16:49.420Z,78.62
2023-03-17T02:19:16.174Z,78.20
2023-03-17T02:21:46.316Z,77.79
2023-03-17T02:24:20.875Z,78.68
2023-03-17T02:26:49.730Z,78.04
2023-03-17T02:29:19.104Z,78.27
2023-03-17T02:31:45.712Z,78.12
2023-03-17T02:34:12.507Z,78.60
2023-03-17T02:36:39.101Z,78.20
2023-03-17T02:39:06.000Z,77.67
2023-03-17T02:41:33.023Z,78.70
2023-03-17T02:43:59.993Z,77.86
2023-03-17T02:46:27.244Z,77.80
2023-03-17T02:48:55.646Z,77.81
2023-03-17T02:51:22.360Z,78.28
2023-03-17T02:53:48.930Z,78.58
2023-03-17T02:56:15.580Z,78.61
2023-03-17T02:58:42.320Z,78.11
2023-03-17T03:01:09.728Z,78.61
2023-03-17T03:03:36.422Z,78.38
2023-03-17T03:06:03.318Z,78.72
2023-03-17T03:08:30.332Z,78.92
2023-03-17T03:10:57.132Z,78.66
2023-03-17T03:13:23.756Z,79.12
2023-03-17T03:15:50.476Z,78.68
2023-03-17T03:18:17.775Z,79.04
2023-03-17T03:20:44.965Z,78.64
2023-03-17T03:23:11.919Z,78.75
2023-03-17T03:25:39.053Z,79.45
2023-03-17T03:28:08.190Z,79.42
2023-03-17T03:30:36.927Z,79.63
2023-03-17T03:33:04.764Z,78.64
2023-03-17T03:35:31.756Z,78.79
2023-03-17T03:37:58.755Z,79.52
2023-03-17T03:40:26.273Z,78.86
2023-03-17T03:42:53.114Z,78.97
2023-03-17T03:45:19.772Z,79.35
2023-03-17T03:47:46.536Z,79.49
2023-03-17T03:50:14.716Z,79.01
2023-03-17T03:52:41.623Z,79.71
2023-03-17T03:55:09.084Z,78.51
2023-03-17T03:57:35.931Z,78.82
2023-03-17T04:00:03.252Z,78.81
2023-03-17T04:02:31.053Z,78.77
2023-03-17T04:04:57.989Z,78.89
2023-03-17T04:07:24.829Z,78.32
2023-03-17T04:09:51.434Z,78.78
2023-03-17T04:12:18.281Z,78.75
2023-03-17T04:14:45.212Z,79.02
2023-03-17T04:17:14.064Z,78.12
2023-03-17T04:19:40.826Z,78.30
2023-03-17T04:22:09.133Z,77.91
2023-03-17T04:24:38.012Z,78.26
2023-03-17T04:27:06.106Z,78.29
2023-03-17T04:29:32.935Z,77.67
2023-03-17T04:31:59.850Z,78.69
2023-03-17T04:34:27.362Z,77.72
2023-03-17T04:36:54.255Z,78.17
2023-03-17T04:39:20.919Z,77.89
2023-03-17T04:41:47.529Z,77.58
2023-03-17T04:44:14.255Z,77.78
2023-03-17T04:46:41.008Z,78.47
2023-03-17T04:49:08.484Z,77.74
2023-03-17T04:51:36.908Z,77.81
2023-03-17T04:54:04.182Z,77.86
2023-03-17T04:56:31.978Z,78.20
2023-03-17T04:58:58.928Z,78.95
2023-03-17T05:01:26.291Z,78.03
2023-03-17T05:03:53.008Z,78.45
2023-03-17T05:06:20.036Z,78.31
2023-03-17T05:08:46.985Z,78.32
2023-03-17T05:11:14.418Z,78.38
2023-03-17T05:13:41.205Z,79.20
2023-03-17T05:16:09.329Z,78.50
2023-03-17T05:18:36.501Z,78.62
2023-03-17T05:21:04.491Z,78.70
2023-03-17T05:23:31.454Z,78.64
2023-03-17T05:25:58.445Z,78.60
2023-03-17T05:28:25.107Z,78.82
2023-03-17T05:30:52.167Z,78.87
2023-03-17T05:33:20.165Z,79.09
2023-03-17T05:35:47.319Z,79.77
2023-03-17T05:38:16.191Z,79.01
2023-03-17T05:40:43.605Z,79.16
2023-03-17T05:43:10.343Z,79.71
2023-03-17T05:45:37.709Z,79.53
2023-03-17T05:48:04.910Z,79.50
2023-03-17T05:50:32.697Z,80.32
2023-03-17T05:52:59.560Z,80.64
2023-03-17T05:55:27.329Z,80.03
2023-03-17T05:57:54.063Z,79.83
2023-03-17T06:00:21.660Z,79.81
2023-03-17T06:02:48.469Z,79.73
2023-03-17T06:05:15.220Z,81.11
2023-03-17T06:07:52.917Z,80.45
2023-03-17T06:10:22.619Z,80.41
2023-03-17T06:12:49.378Z,79.92
2023-03-17T06:15:17.057Z,81.32
2023-03-17T06:17:43.919Z,79.50
2023-03-17T06:20:11.836Z,80.00
2023-03-17T06:22:44.034Z,79.58
2023-03-17T06:25:15.723Z,78.65
2023-03-17T06:27:42.704Z,77.71
2023-03-17T06:30:10.276Z,77.73
2023-03-17T06:32:37.248Z,76.91
2023-03-17T06:35:05.523Z,76.62
2023-03-17T06:37:32.372Z,75.77
2023-03-17T06:40:00.951Z,74.96
2023-03-17T06:42:28.198Z,74.93
2023-03-17T06:44:55.695Z,75.13
2023-03-17T06:47:25.454Z,73.91
2023-03-17T06:49:52.448Z,74.83
2023-03-17T06:52:19.219Z,74.77
2023-03-17T06:54:45.791Z,73.94
2023-03-17T06:57:12.754Z,75.66
2023-03-17T06:59:40.479Z,75.14
2023-03-17T07:02:07.222Z,74.04
2023-03-17T07:04:35.317Z,75.72
2023-03-17T07:07:03.254Z,75.45
2023-03-17T07:09:29.824Z,74.50
2023-03-17T07:11:56.401Z,75.57
2023-03-17T07:14:23.139Z,74.59
2023-03-17T07:16:50.402Z,75.14
2023-03-17T07:19:17.074Z,75.38
2023-03-17T07:21:45.966Z,72.76
2023-03-17T07:24:13.610Z,73.12
2023-03-17T07:26:40.221Z,74.15
2023-03-17T07:29:08.365Z,73.71
2023-03-17T07:31:38.837Z,73.97
2023-03-17T07:34:06.688Z,74.11
2023-03-17T07:36:34.113Z,71.57
2023-03-17T07:39:04.030Z,75.82
2023-03-17T07:41:30.934Z,72.29
2023-03-17T07:43:57.669Z,73.97
2023-03-17T07:46:24.679Z,74.07
2023-03-17T07:48:51.728Z,68.08
2023-03-17T07:51:21.617Z,69.21
2023-03-17T07:53:50.170Z,71.95
2023-03-17T07:56:17.867Z,71.94
2023-03-17T07:58:47.181Z,74.32
2023-03-17T08:01:13.850Z,72.82
2023-03-17T08:03:41.642Z,73.83
2023-03-17T08:06:09.858Z,71.27
2023-03-17T08:08:36.993Z,67.44
2023-03-17T08:11:05.521Z,71.35
2023-03-17T08:13:32.763Z,69.56
2023-03-17T08:15:59.910Z,68.39
2023-03-17T08:18:26.683Z,70.03
2023-03-17T08:20:53.409Z,71.24
2023-03-17T08:23:20.622Z,72.12
2023-03-17T08:25:47.908Z,70.64
2023-03-17T08:28:18.053Z,69.81
2023-03-17T08:30:45.092Z,68.90
2023-03-17T08:33:11.856Z,69.73
2023-03-17T08:35:41.689Z,68.42
2023-03-17T08:38:09.148Z,69.65
2023-03-17T08:40:37.207Z,67.64
2023-03-17T08:43:04.382Z,70.09
2023-03-17T08:45:31.558Z,69.05
2023-03-17T08:47:58.448Z,67.59
2023-03-17T08:50:25.521Z,67.74
2023-03-17T08:52:52.730Z,69.81
2023-03-17T08:55:20.091Z,70.47
2023-03-17T08:57:47.380Z,68.24
2023-03-17T09:00:16.978Z,67.09
2023-03-17T09:02:44.079Z,66.47
2023-03-17T09:05:16.639Z,67.37
2023-03-17T09:07:44.100Z,68.77
2023-03-17T09:10:11.766Z,67.96
2023-03-17T09:12:38.786Z,68.72
2023-03-17T09:15:07.800Z,66.49
2023-03-17T09:17:34.752Z,65.28
2023-03-17T09:20:01.468Z,63.25
2023-03-17T09:22:28.068Z,65.99
2023-03-17T09:24:54.706Z,68.13
2023-03-17T09:27:21.413Z,66.68
2023-03-17T09:29:48.061Z,67.71
2023-03-17T09:32:16.055Z,64.81
2023-03-17T09:34:42.995Z,65.51
2023-03-17T09:37:09.965Z,62.45
2023-03-17T09:39:36.752Z,65.04
2023-03-17T09:42:18.711Z,63.31
2023-03-17T09:45:24.267Z,66.40
2023-03-17T09:48:31.365Z,65.25
2023-03-17T09:50:58.179Z,62.84
2023-03-17T09:53:36.050Z,63.82
2023-03-17T09:56:12.369Z,63.91
2023-03-17T09:58:46.141Z,66.17
2023-03-17T10:01:13.588Z,66.10
2023-03-17T10:03:40.466Z,67.02
2023-03-17T10:06:30.387Z,61.43
2023-03-17T10:09:12.033Z,63.23
2023-03-17T10:11:51.011Z,65.06
2023-03-17T10:14:27.262Z,63.47
2023-03-17T10:17:01.934Z,63.60
2023-03-17T10:19:28.441Z,62.48
2023-03-17T10:22:00.910Z,60.95
2023-03-17T10:24:31.029Z,63.20
2023-03-17T10:27:04.891Z,65.21
2023-03-17T10:29:32.569Z,61.08
2023-03-17T10:32:05.970Z,62.08
2023-03-17T10:34:36.678Z,62.64
2023-03-17T10:37:12.333Z,64.78
2023-03-17T10:39:47.785Z,58.84
2023-03-17T10:42:25.636Z,63.47
2023-03-17T10:45:13.387Z,58.79
2023-03-17T10:47:44.842Z,62.30
2023-03-17T10:50:34.747Z,59.59
2023-03-17T10:53:09.334Z,60.67
2023-03-17T10:55:39.035Z,63.28
2023-03-17T10:58:13.760Z,65.93
2023-03-17T11:00:57.873Z,62.07
2023-03-17T11:03:31.315Z,60.14
2023-03-17T11:06:03.992Z,60.65
2023-03-17T11:08:33.003Z,60.64
2023-03-17T11:10:59.608Z,65.09
2023-03-17T11:13:30.605Z,59.76
2023-03-17T11:16:22.411Z,62.49
2023-03-17T11:18:54.404Z,64.25
2023-03-17T11:21:34.776Z,59.13
2023-03-17T11:24:10.754Z,62.42
2023-03-17T11:26:55.374Z,62.82
2023-03-17T11:29:34.121Z,60.82
2023-03-17T11:32:19.000Z,61.58
2023-03-17T11:35:18.789Z,61.36
2023-03-17T11:38:20.282Z,58.58
2023-03-17T11:41:10.979Z,58.18
2023-03-17T11:43:55.902Z,61.05
2023-03-17T11:46:29.557Z,63.80
2023-03-17T11:48:58.941Z,62.57
2023-03-17T11:51:56.723Z,62.43
2023-03-17T11:54:44.728Z,60.20
2023-03-17T11:57:35.328Z,58.85
2023-03-17T12:00:07.109Z,57.60
2023-03-17T12:02:42.836Z,64.90
2023-03-17T12:05:11.727Z,67.46
2023-03-17T12:07:55.910Z,62.65
2023-03-17T12:10:36.410Z,66.70
2023-03-17T12:13:31.120Z,62.27
2023-03-17T12:16:04.477Z,66.75
2023-03-17T12:19:11.571Z,63.91
2023-03-17T12:21:45.687Z,65.87
2023-03-17T12:24:32.618Z,59.63
2023-03-17T12:27:15.022Z,57.63
2023-03-17T12:29:50.140Z,62.57
2023-03-17T12:32:24.362Z,62.84
2023-03-17T12:34:57.059Z,64.70
2023-03-17T12:37:25.983Z,62.46
2023-03-17T12:40:24.553Z,60.18
2023-03-17T12:43:02.099Z,67.23
2023-03-17T12:45:52.601Z,63.26
2023-03-17T12:49:04.380Z,63.06
2023-03-17T12:51:40.994Z,57.37
2023-03-17T12:54:21.467Z,65.08
2023-03-17T12:56:49.591Z,67.40
2023-03-17T12:59:25.998Z,55.96
2023-03-17T13:01:58.912Z,63.40
2023-03-17T13:04:32.320Z,64.23
2023-03-17T13:07:22.757Z,55.18
2023-03-17T13:10:10.690Z,65.32
2023-03-17T13:12:39.896Z,65.22
2023-03-17T13:15:28.262Z,58.84
2023-03-17T13:18:16.252Z,59.92
2023-03-17T13:21:04.236Z,57.76
2023-03-17T13:23:48.014Z,56.16
2023-03-17T13:26:19.068Z,62.02
2023-03-17T13:28:51.886Z,55.69
2023-03-17T13:31:27.478Z,59.79
2023-03-17T13:33:56.751Z,57.66
2023-03-17T13:36:50.996Z,57.50
2023-03-17T13:40:17.371Z,55.26
2023-03-17T13:43:27.490Z,56.78
2023-03-17T13:46:13.137Z,60.65
2023-03-17T13:48:40.969Z,60.37
2023-03-17T13:51:22.761Z,58.29
2023-03-17T13:53:56.683Z,61.31
2023-03-17T13:56:41.553Z,53.79
2023-03-17T13:59:14.983Z,61.42
2023-03-17T14:01:51.399Z,63.19
2023-03-17T14:04:25.030Z,63.69
2023-03-17T14:06:54.804Z,65.69
2023-03-17T14:09:52.254Z,57.33
2023-03-17T14:12:37.377Z,55.89
2023-03-17T14:15:08.728Z,59.63
2023-03-17T14:17:42.878Z,62.82
2023-03-17T14:20:15.663Z,64.55
2023-03-17T14:22:45.909Z,65.75
2023-03-17T14:25:24.933Z,62.99
2023-03-17T14:27:54.133Z,64.72
2023-03-17T14:30:29.706Z,59.08
2023-03-17T14:33:29.671Z,59.90
2023-03-17T14:35:59.315Z,65.18
2023-03-17T14:38:35.249Z,64.00
2023-03-17T14:41:14.132Z,66.18
2023-03-17T14:43:41.951Z,67.23
2023-03-17T14:46:16.648Z,66.67
2023-03-17T14:48:47.207Z,67.62
2023-03-17T14:51:36.635Z,66.27
2023-03-17T14:54:27.468Z,62.01
2023-03-17T14:57:02.301Z,59.89
2023-03-17T14:59:40.694Z,63.85
2023-03-17T15:02:34.244Z,63.55
2023-03-17T15:05:24.630Z,64.82
2023-03-17T15:07:51.842Z,66.08
2023-03-17T15:10:24.912Z,62.81
2023-03-17T15:13:04.492Z,64.25
2023-03-17T15:15:41.565Z,64.45
2023-03-17T15:18:15.266Z,60.20
2023-03-17T15:20:43.895Z,66.48
2023-03-17T15:23:19.872Z,65.98
2023-03-17T15:25:51.224Z,65.95
2023-03-17T15:28:20.729Z,66.31
2023-03-17T15:30:52.486Z,67.73
2023-03-17T15:33:23.980Z,67.45
2023-03-17T15:35:51.096Z,67.86
2023-03-17T15:38:17.969Z,68.90
2023-03-17T15:40:44.835Z,68.27
2023-03-17T15:43:15.583Z,68.21
2023-03-17T15:45:43.936Z,69.51
2023-03-17T15:48:20.574Z,67.74
2023-03-17T15:50:49.135Z,66.88
2023-03-17T15:53:15.995Z,68.78
2023-03-17T15:55:42.776Z,69.45
2023-03-17T15:58:09.730Z,68.76
2023-03-17T16:00:36.704Z,69.00
2023-03-17T16:03:13.140Z,67.88
2023-03-17T16:05:40.749Z,65.71
2023-03-17T16:08:13.167Z,69.48
2023-03-17T16:10:40.606Z,61.29
2023-03-17T16:13:07.451Z,68.40
2023-03-17T16:15:38.697Z,68.98
2023-03-17T16:18:10.355Z,69.69
2023-03-17T16:20:45.353Z,68.33
2023-03-17T16:23:24.110Z,68.36
2023-03-17T16:25:52.634Z,69.29
2023-03-17T16:28:23.701Z,70.11
2023-03-17T16:30:51.967Z,70.08
2023-03-17T16:33:23.766Z,69.43
2023-03-17T16:35:55.920Z,69.95
2023-03-17T16:38:25.146Z,70.29
2023-03-17T16:40:54.221Z,69.72
2023-03-17T16:43:33.833Z,69.31
2023-03-17T16:46:03.180Z,70.38
2023-03-17T16:48:31.033Z,69.89
2023-03-17T16:50:58.370Z,69.90
2023-03-17T16:53:25.638Z,70.74
2023-03-17T16:55:53.944Z,71.10
2023-03-17T16:58:26.541Z,70.86
2023-03-17T17:00:57.460Z,71.32
2023-03-17T17:03:24.250Z,70.97
2023-03-17T17:05:51.321Z,71.43
2023-03-17T17:08:18.148Z,71.32
2023-03-17T17:10:44.783Z,71.38
2023-03-17T17:13:12.463Z,71.38
2023-03-17T17:15:39.953Z,71.23
2023-03-17T17:18:21.963Z,70.49
2023-03-17T17:20:52.236Z,71.78
2023-03-17T17:23:24.082Z,70.78
2023-03-17T17:25:51.538Z,71.59
2023-03-17T17:28:22.363Z,71.80
2023-03-17T17:30:50.824Z,71.63
2023-03-17T17:33:18.423Z,72.10
2023-03-17T17:35:45.715Z,72.09
2023-03-17T17:38:26.745Z,71.32
2023-03-17T17:40:55.009Z,71.98
2023-03-17T17:43:22.477Z,72.21
2023-03-17T17:45:49.212Z,72.09
2023-03-17T17:48:22.649Z,71.71
2023-03-17T17:50:49.649Z,71.99
2023-03-17T17:53:18.059Z,72.16
2023-03-17T17:55:46.635Z,72.48
2023-03-17T17:58:17.668Z,72.89
2023-03-17T18:00:44.841Z,72.57
2023-03-17T18:03:12.030Z,72.55
2023-03-17T18:05:39.091Z,72.68
2023-03-17T18:08:05.862Z,72.48
2023-03-17T18:10:33.414Z,72.88
2023-03-17T18:13:00.438Z,72.75
2023-03-17T18:15:27.914Z,72.66
2023-03-17T18:17:55.288Z,72.93
2023-03-17T18:20:23.341Z,73.35
2023-03-17T18:22:50.875Z,73.02
2023-03-17T18:25:19.154Z,73.41
2023-03-17T18:27:47.392Z,73.54
2023-03-17T18:30:27.092Z,73.80
2023-03-17T18:32:57.278Z,73.99
2023-03-17T18:35:27.148Z,73.59
2023-03-17T18:37:55.391Z,73.73
2023-03-17T18:40:22.002Z,73.97
2023-03-17T18:42:48.673Z,74.02
2023-03-17T18:45:15.987Z,73.88
2023-03-17T18:47:43.650Z,74.07
2023-03-17T18:50:13.430Z,74.35
2023-03-17T18:52:41.517Z,74.20
2023-03-17T18:55:09.260Z,74.00
2023-03-17T18:57:35.936Z,74.16
2023-03-17T19:00:06.726Z,74.46
2023-03-17T19:02:33.421Z,74.69
2023-03-17T19:05:00.135Z,75.06
2023-03-17T19:07:26.881Z,74.63
2023-03-17T19:09:53.538Z,75.10
2023-03-17T19:12:20.404Z,75.24
2023-03-17T19:14:47.328Z,74.89
2023-03-17T19:17:13.883Z,74.98
2023-03-17T19:19:41.425Z,74.93
2023-03-17T19:22:08.360Z,74.43
2023-03-17T19:24:37.140Z,73.51
2023-03-17T19:27:04.725Z,73.19
2023-03-17T19:29:32.496Z,73.25
2023-03-17T19:31:59.491Z,73.22
2023-03-17T19:34:27.318Z,73.05
2023-03-17T19:36:54.326Z,73.14
2023-03-17T19:39:21.701Z,73.46
2023-03-17T19:41:50.088Z,73.17
2023-03-17T19:44:16.824Z,72.21
2023-03-17T19:46:43.441Z,73.37
2023-03-17T19:49:11.721Z,72.08
2023-03-17T19:51:38.346Z,72.70
2023-03-17T19:54:05.434Z,72.93
2023-03-17T19:56:32.220Z,71.98
2023-03-17T19:58:58.863Z,72.15
2023-03-17T20:01:26.169Z,72.55
2023-03-17T20:03:52.842Z,72.49
2023-03-17T20:06:20.602Z,72.33
2023-03-17T20:08:47.242Z,72.72
2023-03-17T20:11:13.994Z,72.30
2023-03-17T20:13:40.959Z,71.57
2023-03-17T20:16:08.932Z,71.92
2023-03-17T20:18:36.182Z,71.65
2023-03-17T20:21:05.737Z,71.92
2023-03-17T20:23:32.699Z,72.20
2023-03-17T20:25:59.939Z,72.36
2023-03-17T20:28:27.726Z,71.60
2023-03-17T20:31:00.544Z,71.61
2023-03-17T20:33:27.879Z,72.05
2023-03-17T20:35:54.810Z,72.14
2023-03-17T20:38:21.427Z,72.63
2023-03-17T20:40:48.203Z,72.50
2023-03-17T20:43:15.196Z,72.14
2023-03-17T20:45:42.073Z,72.50
2023-03-17T20:48:10.728Z,72.28
2023-03-17T20:50:38.986Z,72.41
2023-03-17T20:53:05.661Z,72.79
2023-03-17T20:55:32.293Z,72.83
2023-03-17T20:57:59.951Z,73.06
2023-03-17T21:00:27.064Z,73.35
2023-03-17T21:02:55.668Z,73.22
2023-03-17T21:05:25.058Z,73.02
2023-03-17T21:07:52.764Z,73.69
2023-03-17T21:10:19.619Z,73.96
2023-03-17T21:12:46.539Z,73.54
2023-03-17T21:15:14.712Z,73.66
2023-03-17T21:17:42.404Z,74.19
2023-03-17T21:20:12.189Z,74.09
2023-03-17T21:22:40.163Z,74.10
2023-03-17T21:25:09.780Z,74.27
2023-03-17T21:27:38.060Z,74.34
2023-03-17T21:30:12.056Z,74.29
2023-03-17T21:32:39.905Z,74.36
2023-03-17T21:35:08.035Z,74.04
2023-03-17T21:37:35.388Z,74.34
2023-03-17T21:40:02.099Z,74.04
2023-03-17T21:42:29.170Z,74.48
2023-03-17T21:44:55.936Z,74.41
2023-03-17T21:47:22.568Z,74.34
2023-03-17T21:49:49.157Z,74.42
2023-03-17T21:52:16.080Z,74.61
2023-03-17T21:54:42.661Z,74.08
2023-03-17T21:57:11.774Z,73.92
2023-03-17T21:59:38.722Z,73.96
2023-03-17T22:02:05.700Z,74.12
2023-03-17T22:04:32.249Z,74.36
2023-03-17T22:06:59.091Z,74.05
2023-03-17T22:09:26.205Z,74.29
2023-03-17T22:11:53.981Z,74.35
2023-03-17T22:14:20.883Z,74.36
2023-03-17T22:16:50.840Z,74.39
2023-03-17T22:19:20.631Z,74.39
2023-03-17T22:21:48.078Z,74.94
2023-03-17T22:24:14.775Z,74.77
2023-03-17T22:26:42.224Z,74.38
2023-03-17T22:29:09.148Z,74.56
2023-03-17T22:31:36.383Z,74.99
2023-03-17T22:34:04.299Z,75.04
2023-03-17T22:36:31.876Z,75.20
2023-03-17T22:38:59.501Z,75.69
2023-03-17T22:41:29.135Z,75.90
2023-03-17T22:43:56.034Z,75.04
2023-03-17T22:46:22.802Z,74.65
2023-03-17T22:48:50.232Z,75.62
2023-03-17T22:51:19.774Z,75.35
2023-03-17T22:53:46.535Z,75.32
2023-03-17T22:56:15.005Z,75.77
2023-03-17T22:58:42.220Z,76.25
2023-03-17T23:01:12.253Z,75.64
2023-03-17T23:03:39.985Z,75.87
2023-03-17T23:06:09.084Z,76.07
2023-03-17T23:08:38.442Z,76.10
2023-03-17T23:11:12.570Z,76.71
2023-03-17T23:13:41.561Z,76.47
2023-03-17T23:16:09.091Z,76.00
2023-03-17T23:18:36.579Z,76.50
2023-03-17T23:21:04.572Z,76.11
2023-03-17T23:23:31.795Z,76.86
2023-03-17T23:25:58.924Z,77.45
2023-03-17T23:28:26.149Z,77.57
2023-03-17T23:30:54.069Z,76.82
2023-03-17T23:33:22.911Z,76.53
2023-03-17T23:35:51.502Z,76.89
2023-03-17T23:38:22.361Z,77.65
2023-03-17T23:40:49.388Z,78.09
2023-03-17T23:43:16.338Z,76.55
2023-03-17T23:45:43.859Z,77.17
2023-03-17T23:48:11.782Z,78.77
2023-03-17T23:50:41.042Z,78.04
2023-03-17T23:53:07.884Z,77.87
2023-03-17T23:55:34.929Z,77.41
2023-03-17T23:58:01.566Z,76.95
